createdAt,value
2023-04-12T00:00:56.330Z,1.60
2023-04-12T00:03:25.349Z,1.70
2023-04-12T00:05:55.129Z,2.00
2023-04-12T00:08:26.253Z,2.20
2023-04-12T00:10:54.075Z,1.55
2023-04-12T00:13:21.816Z,1.33
2023-04-12T00:15:50.967Z,1.77
2023-04-12T00:18:18.770Z,1.90
2023-04-12T00:20:46.529Z,1.60
2023-04-12T00:23:14.237Z,1.58
2023-04-12T00:25:42.019Z,1.52
2023-04-12T00:28:09.685Z,1.70
2023-04-12T00:30:37.448Z,1.63
2023-04-12T00:33:06.618Z,1.75
2023-04-12T00:35:34.636Z,1.73
2023-04-12T00:38:03.669Z,1.73
2023-04-12T00:40:31.493Z,1.52
2023-04-12T00:42:59.241Z,1.65
2023-04-12T00:45:28.096Z,1.63
2023-04-12T00:47:57.363Z,1.33
2023-04-12T00:50:26.522Z,1.50
2023-04-12T00:52:55.477Z,1.80
2023-04-12T00:55:24.061Z,1.60
2023-04-12T00:57:52.790Z,1.48
2023-04-12T01:00:20.866Z,1.33
2023-04-12T01:02:50.579Z,1.63
2023-04-12T01:05:22.780Z,2.00
2023-04-12T01:10:42.528Z,1.30
2023-04-12T01:13:22.171Z,1.52
2023-04-12T01:15:57.585Z,1.80
2023-04-12T01:18:31.744Z,1.85
2023-04-12T01:21:05.033Z,1.55
2023-04-12T01:23:51.924Z,1.60
2023-04-12T01:26:34.404Z,1.88
2023-04-12T01:29:11.824Z,1.20
2023-04-12T01:31:43.172Z,1.73
2023-04-12T01:34:12.992Z,1.52
2023-04-12T01:36:43.498Z,1.40
2023-04-12T01:39:11.909Z,1.63
2023-04-12T01:41:41.882Z,1.35
2023-04-12T01:44:14.120Z,1.17
2023-04-12T01:46:42.577Z,1.38
2023-04-12T01:49:12.810Z,1.55
2023-04-12T01:51:50.775Z,1.60
2023-04-12T01:54:22.843Z,1.48
2023-04-12T01:56:57.664Z,1.45
2023-04-12T01:59:31.502Z,1.40
2023-04-12T02:01:59.726Z,1.40
2023-04-12T02:04:28.779Z,1.20
2023-04-12T02:06:57.110Z,1.30
2023-04-12T02:09:24.895Z,1.27
2023-04-12T02:11:52.618Z,1.58
2023-04-12T02:14:20.355Z,1.60
2023-04-12T02:16:50.604Z,1.10
2023-04-12T02:19:19.412Z,1.33
2023-04-12T02:21:47.492Z,1.52
2023-04-12T02:24:16.067Z,1.27
2023-04-12T02:26:46.189Z,1.52
2023-04-12T02:29:14.743Z,1.45
2023-04-12T02:31:42.784Z,1.08
2023-04-12T02:34:16.043Z,1.30
2023-04-12T02:36:49.138Z,1.40
2023-04-12T02:39:19.267Z,1.17
2023-04-12T02:41:49.262Z,1.30
2023-04-12T02:44:17.627Z,1.42
2023-04-12T02:46:53.507Z,1.38
2023-04-12T02:49:22.621Z,1.83
2023-04-12T02:51:50.803Z,1.25
2023-04-12T02:54:22.599Z,1.80
2023-04-12T02:56:54.046Z,1.80
2023-04-12T02:59:54.154Z,1.50
2023-04-12T03:02:26.016Z,1.60
2023-04-12T03:05:00.452Z,1.30
2023-04-12T03:07:37.279Z,1.40
2023-04-12T03:10:07.520Z,2.00
2023-04-12T03:12:40.061Z,1.55
2023-04-12T03:15:15.428Z,1.40
2023-04-12T03:17:47.221Z,1.80
2023-04-12T03:20:19.955Z,1.70
2023-04-12T03:22:57.142Z,1.40
2023-04-12T03:25:24.946Z,1.88
2023-04-12T03:27:57.972Z,1.67
2023-04-12T03:30:35.301Z,1.35
2023-04-12T03:33:03.196Z,1.63
2023-04-12T03:35:32.714Z,2.00
2023-04-12T03:38:01.237Z,1.60
2023-04-12T03:40:29.171Z,1.70
2023-04-12T03:43:01.781Z,1.85
2023-04-12T03:45:30.545Z,1.60
2023-04-12T03:48:01.332Z,1.75
2023-04-12T03:50:41.982Z,1.52
2023-04-12T03:53:10.660Z,1.42
2023-04-12T03:55:38.764Z,1.48
2023-04-12T03:58:07.079Z,1.40
2023-04-12T04:00:41.130Z,1.77
2023-04-12T04:03:10.475Z,1.30
2023-04-12T04:05:47.238Z,1.75
2023-04-12T04:08:17.106Z,1.83
2023-04-12T04:11:02.613Z,1.58
2023-04-12T04:13:37.906Z,1.67
2023-04-12T04:16:10.927Z,1.50
2023-04-12T04:18:40.670Z,1.73
2023-04-12T04:21:14.241Z,1.95
2023-04-12T04:23:44.841Z,1.55
2023-04-12T04:26:13.807Z,1.77
2023-04-12T04:28:50.252Z,1.50
2023-04-12T04:31:22.297Z,1.55
2023-04-12T04:33:51.369Z,1.80
2023-04-12T04:36:24.992Z,2.15
2023-04-12T04:38:55.566Z,1.95
2023-04-12T04:41:39.478Z,1.75
2023-04-12T04:44:10.382Z,1.80
2023-04-12T04:46:43.913Z,1.60
2023-04-12T04:49:12.006Z,1.63
2023-04-12T04:51:41.157Z,1.50
2023-04-12T04:54:11.507Z,2.17
2023-04-12T04:56:41.994Z,1.50
2023-04-12T04:59:11.537Z,1.90
2023-04-12T05:01:41.305Z,1.73
2023-04-12T05:04:09.482Z,1.77
2023-04-12T05:06:37.723Z,1.40
2023-04-12T05:09:08.853Z,1.90
2023-04-12T05:11:42.665Z,1.55
2023-04-12T05:14:12.744Z,1.75
2023-04-12T05:16:41.334Z,1.42
2023-04-12T05:19:09.118Z,1.45
2023-04-12T05:21:36.854Z,1.60
2023-04-12T05:24:05.307Z,1.70
2023-04-12T05:26:36.419Z,1.63
2023-04-12T05:29:09.062Z,1.90
2023-04-12T05:31:36.812Z,1.88
2023-04-12T05:34:08.089Z,1.88
2023-04-12T05:36:55.781Z,1.50
2023-04-12T05:39:24.296Z,1.70
2023-04-12T05:41:55.049Z,2.10
2023-04-12T05:44:22.780Z,1.40
2023-04-12T05:46:50.673Z,1.95
2023-04-12T05:49:18.427Z,1.60
2023-04-12T05:51:46.334Z,1.70
2023-04-12T05:54:22.369Z,1.98
2023-04-12T05:56:54.220Z,1.77
2023-04-12T05:59:23.687Z,1.48
2023-04-12T06:01:51.683Z,1.85
2023-04-12T06:04:21.133Z,1.83
2023-04-12T06:06:49.659Z,2.15
2023-04-12T06:09:17.402Z,2.00
2023-04-12T06:11:45.275Z,1.90
2023-04-12T06:14:13.223Z,2.00
2023-04-12T06:16:42.469Z,1.98
2023-04-12T06:19:11.200Z,2.13
2023-04-12T06:21:39.031Z,2.00
2023-04-12T06:24:08.032Z,1.90
2023-04-12T06:26:39.673Z,1.75
2023-04-12T06:29:08.444Z,2.22
2023-04-12T06:31:36.288Z,1.65
2023-04-12T06:34:05.775Z,1.67
2023-04-12T06:36:33.934Z,1.88
2023-04-12T06:39:01.653Z,1.90
2023-04-12T06:41:29.579Z,1.67
2023-04-12T06:44:01.477Z,1.80
2023-04-12T06:46:30.001Z,1.98
2023-04-12T06:48:58.020Z,1.67
2023-04-12T06:51:28.130Z,1.77
2023-04-12T06:53:56.207Z,1.92
2023-04-12T06:56:24.045Z,1.52
2023-04-12T06:58:51.815Z,1.58
2023-04-12T07:01:19.714Z,1.80
2023-04-12T07:03:47.757Z,1.65
2023-04-12T07:06:24.905Z,2.17
2023-04-12T07:08:54.909Z,1.60
2023-04-12T07:11:23.932Z,1.73
2023-04-12T07:13:52.046Z,1.60
2023-04-12T07:16:19.817Z,1.77
2023-04-12T07:18:47.664Z,1.75
2023-04-12T07:21:17.476Z,1.85
2023-04-12T07:23:46.800Z,1.70
2023-04-12T07:26:16.005Z,1.80
2023-04-12T07:28:43.884Z,1.60
2023-04-12T07:31:11.712Z,1.83
2023-04-12T07:33:42.341Z,2.20
2023-04-12T07:36:11.847Z,1.77
2023-04-12T07:38:39.696Z,1.75
2023-04-12T07:41:07.465Z,2.13
2023-04-12T07:43:36.616Z,2.35
2023-04-12T07:46:08.350Z,1.85
2023-04-12T07:48:36.205Z,2.03
2023-04-12T07:51:04.170Z,2.05
2023-04-12T07:53:31.914Z,1.92
2023-04-12T07:55:59.704Z,2.10
2023-04-12T07:58:27.440Z,1.88
2023-04-12T08:00:59.184Z,2.20
2023-04-12T08:03:28.600Z,2.20
2023-04-12T08:05:56.473Z,2.17
2023-04-12T08:08:24.299Z,2.53
2023-04-12T08:10:52.985Z,2.55
2023-04-12T08:13:21.237Z,2.20
2023-04-12T08:15:49.303Z,2.63
2023-04-12T08:18:21.096Z,2.67
2023-04-12T08:20:49.291Z,2.30
2023-04-12T08:23:17.539Z,2.55
2023-04-12T08:25:45.371Z,2.70
2023-04-12T08:28:13.149Z,1.98
2023-04-12T08:30:40.988Z,2.40
2023-04-12T08:33:08.731Z,2.58
2023-04-12T08:35:40.016Z,2.63
2023-04-12T08:38:08.125Z,2.33
2023-04-12T08:40:36.648Z,2.25
2023-04-12T08:43:08.641Z,2.22
2023-04-12T08:45:37.213Z,2.03
2023-04-12T08:48:06.786Z,2.20
2023-04-12T08:50:34.745Z,2.17
2023-04-12T08:53:03.910Z,2.25
2023-04-12T08:55:31.792Z,2.00
2023-04-12T08:58:00.315Z,2.25
2023-04-12T09:00:28.623Z,2.10
2023-04-12T09:02:56.434Z,1.73
2023-04-12T09:05:29.922Z,1.80
2023-04-12T09:07:58.022Z,1.80
2023-04-12T09:10:35.082Z,1.95
2023-04-12T09:13:03.897Z,2.05
2023-04-12T09:15:31.667Z,1.80
2023-04-12T09:18:08.196Z,1.40
2023-04-12T09:20:36.574Z,1.80
2023-04-12T09:23:18.475Z,1.30
2023-04-12T09:25:48.428Z,1.55
2023-04-12T09:28:21.309Z,1.40
2023-04-12T09:30:51.621Z,1.40
2023-04-12T09:33:21.374Z,1.50
2023-04-12T09:35:49.890Z,1.20
2023-04-12T09:38:17.936Z,1.50
2023-04-12T09:40:47.011Z,1.40
2023-04-12T09:43:15.797Z,1.50
2023-04-12T09:45:43.646Z,1.10
2023-04-12T09:48:20.303Z,1.15
2023-04-12T09:50:48.478Z,1.50
2023-04-12T09:53:18.275Z,1.40
2023-04-12T09:55:49.081Z,1.30
2023-04-12T09:58:20.069Z,1.25
2023-04-12T10:00:48.687Z,1.40
2023-04-12T10:03:16.935Z,1.20
2023-04-12T10:05:45.020Z,1.10
2023-04-12T10:08:13.278Z,1.02
2023-04-12T10:10:41.250Z,1.10
2023-04-12T10:13:13.779Z,1.10
2023-04-12T10:15:42.462Z,1.10
2023-04-12T10:18:12.665Z,1.35
2023-04-12T10:20:41.777Z,0.80
2023-04-12T10:23:12.042Z,1.10
2023-04-12T10:25:42.110Z,1.05
2023-04-12T10:28:19.809Z,1.02
2023-04-12T10:30:49.540Z,1.00
2023-04-12T10:33:19.009Z,1.00
2023-04-12T10:35:52.500Z,0.90
2023-04-12T10:38:20.949Z,0.73
2023-04-12T10:41:08.256Z,0.95
2023-04-12T10:43:37.650Z,0.90
2023-04-12T10:46:06.844Z,1.13
2023-04-12T10:48:35.865Z,1.05
2023-04-12T10:51:15.139Z,0.70
2023-04-12T10:53:43.123Z,0.85
2023-04-12T10:56:38.314Z,0.75
2023-04-12T10:59:08.315Z,0.90
2023-04-12T11:01:42.336Z,0.90
2023-04-12T11:04:16.825Z,0.80
2023-04-12T11:07:21.571Z,1.00
2023-04-12T11:09:51.045Z,0.80
2023-04-12T11:12:30.658Z,0.80
2023-04-12T11:15:03.042Z,0.80
2023-04-12T11:17:55.741Z,0.80
2023-04-12T11:20:24.129Z,0.88
2023-04-12T11:22:52.669Z,1.00
2023-04-12T11:25:21.494Z,0.82
2023-04-12T11:27:53.429Z,1.10
2023-04-12T11:30:23.648Z,0.95
2023-04-12T11:32:51.547Z,0.90
2023-04-12T11:35:24.276Z,0.90
2023-04-12T11:37:52.235Z,0.90
2023-04-12T11:40:23.313Z,0.90
2023-04-12T11:42:51.288Z,0.80
2023-04-12T11:45:22.270Z,0.93
2023-04-12T11:47:52.117Z,1.00
2023-04-12T11:50:30.465Z,1.05
2023-04-12T11:53:11.264Z,1.00
2023-04-12T11:55:39.221Z,0.80
2023-04-12T11:58:07.656Z,1.00
2023-04-12T12:00:37.115Z,0.80
2023-04-12T12:03:08.234Z,1.27
2023-04-12T12:05:39.259Z,1.00
2023-04-12T12:08:08.281Z,0.80
2023-04-12T12:10:46.879Z,1.00
2023-04-12T12:13:23.592Z,0.80
2023-04-12T12:15:54.371Z,0.85
2023-04-12T12:18:27.225Z,0.90
2023-04-12T12:20:55.816Z,0.90
2023-04-12T12:23:33.553Z,0.98
2023-04-12T12:26:17.940Z,1.10
2023-04-12T12:28:51.175Z,1.20
2023-04-12T12:31:22.368Z,1.10
2023-04-12T12:33:52.526Z,1.20
2023-04-12T12:36:21.352Z,1.20
2023-04-12T12:38:51.397Z,1.05
2023-04-12T12:41:20.904Z,1.00
2023-04-12T12:43:49.378Z,1.10
2023-04-12T12:46:18.540Z,1.10
2023-04-12T12:48:49.259Z,1.40
2023-04-12T12:51:17.934Z,1.30
2023-04-12T12:53:46.094Z,1.10
2023-04-12T12:56:15.343Z,1.20
2023-04-12T12:58:43.223Z,1.13
2023-04-12T13:01:11.288Z,1.20
2023-04-12T13:03:39.124Z,1.38
2023-04-12T13:06:10.082Z,1.27
2023-04-12T13:08:38.039Z,1.13
2023-04-12T13:11:06.307Z,1.30
2023-04-12T13:13:34.012Z,1.20
2023-04-12T13:16:01.797Z,1.20
2023-04-12T13:18:29.608Z,1.40
2023-04-12T13:20:57.493Z,1.40
2023-04-12T13:23:26.748Z,1.30
2023-04-12T13:25:54.667Z,1.35
2023-04-12T13:28:22.584Z,1.65
2023-04-12T13:30:50.491Z,1.80
2023-04-12T13:33:21.579Z,1.63
2023-04-12T13:35:50.116Z,1.70
2023-04-12T13:38:17.965Z,1.58
2023-04-12T13:40:47.053Z,1.50
2023-04-12T13:43:14.813Z,1.25
2023-04-12T13:45:42.647Z,1.70
2023-04-12T13:48:10.535Z,1.50
2023-04-12T13:50:38.380Z,1.50
2023-04-12T13:53:06.161Z,1.58
2023-04-12T13:55:33.846Z,1.63
2023-04-12T13:58:02.926Z,1.63
2023-04-12T14:00:30.766Z,1.60
2023-04-12T14:02:58.579Z,1.70
2023-04-12T14:05:26.527Z,2.20
2023-04-12T14:07:55.635Z,2.03
2023-04-12T14:10:23.447Z,2.00
2023-04-12T14:12:51.280Z,2.30
2023-04-12T14:15:20.460Z,2.28
2023-04-12T14:17:48.413Z,2.10
2023-04-12T14:20:19.216Z,2.03
2023-04-12T14:22:47.372Z,2.80
2023-04-12T14:25:15.326Z,2.50
2023-04-12T14:27:43.068Z,2.97
2023-04-12T14:30:11.100Z,2.28
2023-04-12T14:32:41.123Z,2.63
2023-04-12T14:35:09.839Z,2.75
2023-04-12T14:37:37.948Z,3.00
2023-04-12T14:40:08.350Z,2.72
2023-04-12T14:42:36.203Z,3.13
2023-04-12T14:45:05.383Z,2.90
2023-04-12T14:47:33.135Z,3.03
2023-04-12T14:50:02.315Z,2.80
2023-04-12T14:52:33.712Z,2.60
2023-04-12T14:55:02.356Z,2.83
2023-04-12T14:57:30.285Z,2.65
2023-04-12T14:59:58.543Z,3.20
2023-04-12T15:02:26.970Z,2.90
2023-04-12T15:04:54.967Z,3.30
2023-04-12T15:07:24.085Z,2.85
2023-04-12T15:09:51.893Z,3.60
2023-04-12T15:12:19.779Z,3.30
2023-04-12T15:14:47.552Z,3.25
2023-04-12T15:17:15.287Z,2.88
2023-04-12T15:19:43.137Z,3.17
2023-04-12T15:22:10.848Z,3.03
2023-04-12T15:24:40.012Z,3.53
2023-04-12T15:27:07.829Z,3.42
2023-04-12T15:29:36.192Z,2.92
2023-04-12T15:32:04.134Z,3.15
2023-04-12T15:34:33.830Z,2.53
2023-04-12T15:37:02.409Z,2.60
2023-04-12T15:39:30.429Z,2.88
2023-04-12T15:42:00.260Z,2.65
2023-04-12T15:44:31.678Z,3.15
2023-04-12T15:47:10.517Z,2.88
2023-04-12T15:49:39.224Z,3.00
2023-04-12T15:52:06.994Z,2.75
2023-04-12T15:54:35.093Z,2.55
2023-04-12T15:57:09.574Z,2.30
2023-04-12T15:59:37.993Z,1.63
2023-04-12T16:02:09.344Z,1.80
2023-04-12T16:04:37.869Z,1.33
2023-04-12T16:07:05.848Z,1.50
2023-04-12T16:09:34.774Z,1.42
2023-04-12T16:12:04.247Z,1.50
2023-04-12T16:14:32.274Z,1.42
2023-04-12T16:17:00.132Z,1.13
2023-04-12T16:19:28.243Z,1.30
2023-04-12T16:21:55.997Z,1.63
2023-04-12T16:24:23.743Z,1.30
2023-04-12T16:26:51.990Z,1.48
2023-04-12T16:29:21.077Z,1.88
2023-04-12T16:31:48.843Z,1.60
2023-04-12T16:34:16.612Z,1.73
2023-04-12T16:36:44.639Z,2.35
2023-04-12T16:39:13.211Z,2.65
2023-04-12T16:41:40.920Z,2.47
2023-04-12T16:44:08.738Z,2.42
2023-04-12T16:46:37.984Z,2.30
2023-04-12T16:49:05.898Z,2.10
2023-04-12T16:51:36.757Z,1.95
2023-04-12T16:54:05.573Z,2.10
2023-04-12T16:56:33.291Z,2.08
2023-04-12T16:59:01.189Z,2.25
2023-04-12T17:01:28.924Z,1.92
2023-04-12T17:04:00.030Z,1.83
2023-04-12T17:06:30.252Z,1.83
2023-04-12T17:08:58.122Z,2.30
2023-04-12T17:11:26.615Z,1.83
2023-04-12T17:13:54.636Z,2.20
2023-04-12T17:16:22.427Z,2.03
2023-04-12T17:18:50.198Z,2.00
2023-04-12T17:21:20.184Z,2.00
2023-04-12T17:23:49.484Z,1.75
2023-04-12T17:26:19.022Z,1.98
2023-04-12T17:28:46.838Z,1.92
2023-04-12T17:31:15.353Z,1.92
2023-04-12T17:33:43.082Z,1.80
2023-04-12T17:36:12.046Z,2.10
2023-04-12T17:38:41.599Z,1.88
2023-04-12T17:41:10.209Z,3.08
2023-04-12T17:43:38.066Z,2.17
2023-04-12T17:46:07.252Z,2.70
2023-04-12T17:48:35.787Z,2.65
2023-04-12T17:51:04.211Z,2.42
2023-04-12T17:53:32.055Z,2.60
2023-04-12T17:56:01.369Z,2.30
2023-04-12T17:58:29.895Z,2.80
2023-04-12T18:00:57.759Z,2.90
2023-04-12T18:03:26.634Z,2.20
2023-04-12T18:05:55.592Z,2.15
2023-04-12T18:08:23.971Z,2.40
2023-04-12T18:10:52.222Z,1.98
2023-04-12T18:13:21.913Z,2.60
2023-04-12T18:15:49.705Z,2.38
2023-04-12T18:18:17.553Z,2.40
2023-04-12T18:20:45.273Z,2.38
2023-04-12T18:23:13.035Z,1.90
2023-04-12T18:25:40.887Z,2.00
2023-04-12T18:28:09.853Z,2.35
2023-04-12T18:30:38.962Z,2.40
2023-04-12T18:33:08.045Z,2.90
2023-04-12T18:35:36.216Z,2.20
2023-04-12T18:38:03.955Z,1.92
2023-04-12T18:40:31.779Z,1.90
2023-04-12T18:43:02.743Z,2.25
2023-04-12T18:45:31.036Z,2.55
2023-04-12T18:48:00.475Z,3.40
2023-04-12T18:50:28.496Z,2.78
2023-04-12T18:52:56.282Z,3.40
2023-04-12T18:55:23.980Z,3.13
2023-04-12T18:57:51.681Z,3.08
2023-04-12T19:00:20.471Z,4.55
2023-04-12T19:02:48.329Z,3.65
2023-04-12T19:05:18.505Z,2.78
2023-04-12T19:07:46.301Z,2.85
2023-04-12T19:10:14.592Z,3.28
2023-04-12T19:12:42.362Z,3.67
2023-04-12T19:15:11.857Z,3.30
2023-04-12T19:17:40.118Z,3.13
2023-04-12T19:20:09.318Z,3.25
2023-04-12T19:22:38.429Z,3.92
2023-04-12T19:25:07.222Z,2.97
2023-04-12T19:27:34.924Z,3.22
2023-04-12T19:30:03.454Z,3.60
2023-04-12T19:32:31.506Z,2.88
2023-04-12T19:34:59.273Z,2.80
2023-04-12T19:37:28.382Z,3.38
2023-04-12T19:39:57.596Z,3.22
2023-04-12T19:42:25.317Z,4.78
2023-04-12T19:44:53.118Z,4.43
2023-04-12T19:47:21.719Z,4.35
2023-04-12T19:49:49.813Z,4.82
2023-04-12T19:52:20.137Z,3.78
2023-04-12T19:54:47.920Z,4.55
2023-04-12T19:57:17.817Z,3.72
2023-04-12T19:59:45.567Z,3.92
2023-04-12T20:02:13.412Z,4.68
2023-04-12T20:04:41.590Z,4.43
2023-04-12T20:07:09.482Z,4.03
2023-04-12T20:09:37.276Z,5.20
2023-04-12T20:12:06.238Z,4.78
2023-04-12T20:14:36.869Z,4.07
2023-04-12T20:17:05.853Z,5.20
2023-04-12T20:19:33.680Z,4.32
2023-04-12T20:22:03.712Z,4.70
2023-04-12T20:24:34.406Z,4.85
2023-04-12T20:27:02.357Z,4.80
2023-04-12T20:29:31.580Z,4.35
2023-04-12T20:32:00.759Z,4.18
2023-04-12T20:34:29.358Z,4.15
2023-04-12T20:36:57.961Z,3.83
2023-04-12T20:39:25.723Z,3.33
2023-04-12T20:41:54.834Z,3.13
2023-04-12T20:44:22.700Z,3.03
2023-04-12T20:46:50.917Z,3.55
2023-04-12T20:49:20.540Z,3.80
2023-04-12T20:51:48.522Z,2.95
2023-04-12T20:54:16.748Z,3.67
2023-04-12T20:56:45.111Z,2.85
2023-04-12T20:59:12.857Z,2.85
2023-04-12T21:01:40.653Z,3.63
2023-04-12T21:04:09.026Z,2.92
2023-04-12T21:06:38.154Z,3.55
2023-04-12T21:09:06.008Z,3.67
2023-04-12T21:11:33.765Z,3.08
2023-04-12T21:14:01.565Z,2.72
2023-04-12T21:16:29.376Z,2.80
2023-04-12T21:18:58.304Z,2.70
2023-04-12T21:21:27.055Z,2.97
2023-04-12T21:23:56.235Z,2.35
2023-04-12T21:26:24.282Z,2.60
2023-04-12T21:28:52.115Z,2.30
2023-04-12T21:31:20.046Z,2.35
2023-04-12T21:33:48.106Z,2.63
2023-04-12T21:36:15.820Z,2.92
2023-04-12T21:38:43.549Z,3.58
2023-04-12T21:41:12.941Z,3.38
2023-04-12T21:43:41.267Z,4.60
2023-04-12T21:46:09.169Z,4.88
2023-04-12T21:48:37.615Z,5.72
2023-04-12T21:51:05.939Z,4.85
2023-04-12T21:53:33.795Z,5.20
2023-04-12T21:56:01.719Z,6.35
2023-04-12T21:58:32.426Z,6.72
2023-04-12T22:01:00.320Z,8.10
2023-04-12T22:03:28.393Z,7.53
2023-04-12T22:06:04.113Z,8.13
2023-04-12T22:08:32.801Z,9.45
2023-04-12T22:11:01.274Z,9.30
2023-04-12T22:13:30.859Z,8.75
2023-04-12T22:16:00.625Z,11.13
2023-04-12T22:18:28.447Z,10.23
2023-04-12T22:20:57.085Z,10.23
2023-04-12T22:23:24.914Z,8.30
2023-04-12T22:25:58.189Z,7.90
2023-04-12T22:28:26.035Z,8.48
2023-04-12T22:30:57.035Z,10.55
2023-04-12T22:33:24.893Z,8.57
2023-04-12T22:35:52.592Z,9.45
2023-04-12T22:38:20.506Z,8.10
2023-04-12T22:40:48.294Z,9.60
2023-04-12T22:43:18.365Z,9.15
2023-04-12T22:45:46.980Z,8.35
2023-04-12T22:48:16.157Z,8.48
2023-04-12T22:50:45.016Z,7.30
2023-04-12T22:53:13.924Z,7.22
2023-04-12T22:55:42.142Z,8.30
2023-04-12T22:58:09.951Z,7.20
2023-04-12T23:00:39.308Z,7.38
2023-04-12T23:03:10.831Z,7.13
2023-04-12T23:05:44.826Z,8.02
2023-04-12T23:08:14.333Z,6.97
2023-04-12T23:10:43.044Z,6.80
2023-04-12T23:13:11.108Z,6.82
2023-04-12T23:15:40.429Z,6.60
2023-04-12T23:18:08.969Z,6.57
2023-04-12T23:20:36.874Z,6.68
2023-04-12T23:23:06.009Z,6.45
2023-04-12T23:25:41.758Z,6.57
2023-04-12T23:28:12.940Z,6.00
2023-04-12T23:30:43.842Z,6.38
2023-04-12T23:33:12.238Z,6.13
2023-04-12T23:35:41.559Z,5.38
2023-04-12T23:38:15.365Z,6.18
2023-04-12T23:40:44.193Z,5.32
2023-04-12T23:43:11.933Z,5.45
2023-04-12T23:45:39.800Z,5.30
2023-04-12T23:48:07.903Z,4.78
2023-04-12T23:50:35.753Z,4.57
2023-04-12T23:53:04.047Z,4.63
2023-04-12T23:55:33.153Z,4.50
2023-04-12T23:58:00.921Z,3.88
